This is the latest recevied weather packets stored in our database for station/object KC5TIL-3. If no packets are shown the sender has not sent any weather packets the latest 10 day(s).
| Time | Temp. | Humidity | Pressure | Rain* | Wind** | Luminosity | Snow |
|---|---|---|---|---|---|---|---|
| 1787791893 | 32.78° C | 19% | 1009.8 hPa | 0 mm | 0 m/s | - | - |
| 1787791594 | 32.78° C | 18% | 1009.8 hPa | 0 mm | 0 m/s | - | - |
| 1787791293 | 32.78° C | 19% | 1009.8 hPa | 0 mm | 0 m/s | - | - |
| 1787790995 | 32.22° C | 19% | 1009.8 hPa | 0 mm | 0 m/s | - | - |
| 1787790697 | 32.22° C | 19% | 1009.8 hPa | 0 mm | 0 m/s | - | - |
| 1787790344 | 32.22° C | 20% | 1009.8 hPa | 0 mm | 0 m/s | - | - |
| 1787790036 | 32.22° C | 20% | 1009.8 hPa | 0 mm | 0 m/s | - | - |
| 1787789676 | 32.22° C | 20% | 1009.8 hPa | 0 mm | 1.79 m/s, 31° | - | - |
| 1787789375 | 31.67° C | 20% | 1009.8 hPa | 0 mm | 2.24 m/s, 25° | - | - |
| 1787789072 | 31.67° C | 20% | 1009.8 hPa | 0 mm | 2.24 m/s, 356° | - | - |
| 1787788774 | 31.67° C | 20% | 1009.8 hPa | 0 mm | 2.24 m/s, 90° | - | - |
| 1787788467 | 32.22° C | 20% | 1009.8 hPa | 0 mm | 1.79 m/s, 298° | - | - |
| 1787788169 | 32.22° C | 18% | 1009.8 hPa | 0 mm | 3.58 m/s, 26° | - | - |
| 1787787871 | 33.33° C | 17% | 1010.8 hPa | 0 mm | 4.02 m/s, 174° | - | - |
| 1787787570 | 33.33° C | 17% | 1010.8 hPa | 0 mm | 5.81 m/s, 347° | - | - |
| 1787787271 | 33.33° C | 16% | 1010.8 hPa | 0 mm | 4.92 m/s, 26° | - | - |
| 1787786973 | 37.22° C | 13% | 1009.8 hPa | 0 mm | 3.58 m/s, 23° | - | - |
| 1787786672 | 37.22° C | 12% | 1009.8 hPa | 0 mm | 1.34 m/s, 286° | - | - |
| 1787786374 | 37.78° C | 12% | 1009.8 hPa | 0 mm | 1.34 m/s, 33° | - | - |
| 1787786076 | 37.22° C | 13% | 1009.8 hPa | 0 mm | 0 m/s | - | - |
| 1787785774 | 37.22° C | 13% | 1009.8 hPa | 0 mm | 0 m/s | - | - |
| 1787785476 | 37.22° C | 13% | 1009.8 hPa | 0 mm | 1.79 m/s, 75° | - | - |
| 1787785178 | 37.78° C | 12% | 1009.8 hPa | 0 mm | 1.79 m/s, 72° | - | - |
| 1787784876 | 37.22° C | 15% | 1009.8 hPa | 0 mm | 2.24 m/s, 197° | - | - |
| 1787784578 | 37.22° C | 15% | 1009.8 hPa | 0 mm | 2.24 m/s, 210° | - | - |
* Rain latest hour (hover to see other rain measurements)
** Current wind speed in m/s (hover to see current wind gust speed)